Time;durP1;ratioP1;P1;durP2;ratioP2;P2;SDS_P1;SDS_P2;PMS_P1;PMS_P2;Temp;Humidity;BMP_temperature;BMP_pressure;BME280_temperature;BME280_humidity;BME280_pressure;Samples;Min_cycle;Max_cycle;Signal;HPM_P1;HPM_P2
2022/10/18 00:00:43;;;;;;;12.63;9.30;;;14.60;99.90;;;;;;5042356;28;20219;-43
2022/10/18 00:03:10;;;;;;;14.93;9.73;;;14.60;99.90;;;;;;5043754;28;20274;-43
2022/10/18 00:05:36;;;;;;;13.87;9.60;;;14.50;99.90;;;;;;5030661;28;20218;-47
2022/10/18 00:08:03;;;;;;;15.57;9.40;;;14.50;99.90;;;;;;5043114;28;20813;-44
2022/10/18 00:10:30;;;;;;;16.13;9.80;;;14.50;99.90;;;;;;5035839;28;20222;-43
2022/10/18 00:12:57;;;;;;;13.70;9.83;;;14.50;99.90;;;;;;5033852;28;20199;-43
2022/10/18 00:15:25;;;;;;;12.43;9.37;;;14.50;99.90;;;;;;5043829;28;20230;-45
2022/10/18 00:17:51;;;;;;;14.10;10.20;;;14.50;99.90;;;;;;5039766;28;20947;-43
2022/10/18 00:20:18;;;;;;;13.03;10.67;;;14.40;99.90;;;;;;5031495;28;20234;-44
2022/10/18 00:22:45;;;;;;;14.50;10.07;;;14.40;99.90;;;;;;5041745;28;20207;-43
2022/10/18 00:25:11;;;;;;;13.63;9.60;;;14.40;99.90;;;;;;5034337;28;20223;-43
2022/10/18 00:27:38;;;;;;;16.17;10.23;;;14.40;99.90;;;;;;5040157;28;20203;-45
2022/10/18 00:30:06;;;;;;;14.37;10.03;;;14.40;99.90;;;;;;5039234;28;20219;-43
2022/10/18 00:32:37;;;;;;;14.30;10.33;;;14.40;99.90;;;;;;5038564;28;20669;-42
2022/10/18 00:35:05;;;;;;;16.67;11.17;;;14.40;99.90;;;;;;5028255;28;20243;-42
2022/10/18 00:37:32;;;;;;;18.53;11.00;;;14.40;99.90;;;;;;5044351;28;20199;-43
2022/10/18 00:39:59;;;;;;;16.77;10.90;;;14.40;99.90;;;;;;5030238;28;20254;-42
2022/10/18 00:42:29;;;;;;;18.60;10.77;;;14.40;99.90;;;;;;5044563;28;20199;-43
2022/10/18 00:45:19;;;;;;;17.23;11.27;;;14.50;99.90;;;;;;5029598;28;20337;-42
2022/10/18 00:47:53;;;;;;;18.03;12.07;;;14.40;99.90;;;;;;5040661;28;20605;-43
2022/10/18 00:50:21;;;;;;;17.17;11.03;;;14.40;99.90;;;;;;5031396;28;20788;-41
2022/10/18 00:52:52;;;;;;;16.63;10.83;;;14.40;99.90;;;;;;5040440;28;20215;-44
2022/10/18 00:55:19;;;;;;;21.00;12.03;;;14.40;99.90;;;;;;5043417;28;20630;-42
2022/10/18 00:57:46;;;;;;;19.53;12.33;;;14.40;99.90;;;;;;5028155;28;20683;-42
2022/10/18 01:00:14;;;;;;;18.43;12.23;;;14.40;99.90;;;;;;5037882;28;20572;-44
2022/10/18 01:02:42;;;;;;;22.10;12.20;;;14.40;99.90;;;;;;5041116;28;20199;-45
2022/10/18 01:05:12;;;;;;;17.17;12.13;;;14.40;99.90;;;;;;5042166;28;20404;-42
2022/10/18 01:08:03;;;;;;;15.97;11.83;;;14.30;99.90;;;;;;5029736;28;20218;-44
2022/10/18 01:10:39;;;;;;;21.10;12.47;;;14.30;99.90;;;;;;5040184;28;20223;-43
2022/10/18 01:13:19;;;;;;;17.37;12.27;;;14.30;99.90;;;;;;5036799;28;20796;-42
2022/10/18 01:15:58;;;;;;;15.63;12.37;;;14.30;99.90;;;;;;5031676;28;20248;-44
2022/10/18 01:18:28;;;;;;;20.30;12.63;;;14.30;99.90;;;;;;5038183;28;20285;-42
2022/10/18 01:21:08;;;;;;;18.57;11.57;;;14.30;99.90;;;;;;5027123;28;20231;-43
2022/10/18 01:23:57;;;;;;;17.90;13.10;;;14.30;99.90;;;;;;5041870;28;20203;-43
2022/10/18 01:26:39;;;;;;;19.03;12.60;;;14.30;99.90;;;;;;5042905;28;20203;-43
2022/10/18 01:29:15;;;;;;;21.50;12.67;;;14.20;99.90;;;;;;5036726;28;20211;-42
2022/10/18 01:31:47;;;;;;;17.37;12.97;;;14.20;99.90;;;;;;5030683;28;20772;-45
2022/10/18 01:34:17;;;;;;;18.57;12.53;;;14.20;99.90;;;;;;5038614;28;20211;-42
2022/10/18 01:36:48;;;;;;;18.63;12.97;;;14.20;99.90;;;;;;5031232;28;20241;-42
2022/10/18 01:39:18;;;;;;;19.73;12.93;;;14.30;99.90;;;;;;5039490;28;20675;-43
2022/10/18 01:41:46;;;;;;;16.43;12.77;;;14.30;99.90;;;;;;5030992;28;20220;-43
2022/10/18 01:44:19;;;;;;;19.53;13.57;;;14.30;99.90;;;;;;5041195;28;20278;-42
2022/10/18 01:46:49;;;;;;;17.60;12.67;;;14.30;99.90;;;;;;5030858;28;20215;-42
2022/10/18 01:49:16;;;;;;;24.27;13.03;;;14.30;99.90;;;;;;5043507;28;20203;-42
2022/10/18 01:51:43;;;;;;;18.63;13.23;;;14.30;99.90;;;;;;5039520;28;20312;-43
2022/10/18 01:54:12;;;;;;;17.33;12.77;;;14.30;99.90;;;;;;5029034;28;20219;-42
2022/10/18 01:56:47;;;;;;;24.33;13.90;;;14.30;99.90;;;;;;5033881;28;20196;-42
2022/10/18 01:59:26;;;;;;;20.03;13.70;;;14.30;99.90;;;;;;5032298;28;20206;-43
2022/10/18 02:02:02;;;;;;;23.23;13.50;;;14.30;99.90;;;;;;5036893;28;20222;-44
2022/10/18 02:04:35;;;;;;;23.87;13.17;;;14.30;99.90;;;;;;5038570;28;20187;-43
2022/10/18 02:07:09;;;;;;;18.53;13.73;;;14.30;99.90;;;;;;5041741;28;20200;-42
2022/10/18 02:09:41;;;;;;;18.67;13.50;;;14.30;99.90;;;;;;5020413;28;20207;-45
2022/10/18 02:12:12;;;;;;;22.73;13.70;;;14.30;99.90;;;;;;5036122;28;20227;-46
2022/10/18 02:14:40;;;;;;;18.73;13.33;;;14.20;99.90;;;;;;5022641;28;21012;-45
2022/10/18 02:17:11;;;;;;;22.63;14.07;;;14.20;99.90;;;;;;5032207;28;20211;-43
2022/10/18 02:19:41;;;;;;;28.27;15.10;;;14.20;99.90;;;;;;5039931;28;20196;-42
2022/10/18 02:22:11;;;;;;;20.30;14.30;;;14.20;99.90;;;;;;5042563;28;20218;-44
2022/10/18 02:24:41;;;;;;;18.50;13.77;;;14.20;99.90;;;;;;5026833;28;20187;-44
2022/10/18 02:27:09;;;;;;;21.07;13.73;;;14.20;99.90;;;;;;5039851;28;20201;-43
2022/10/18 02:29:36;;;;;;;26.50;14.10;;;14.20;99.90;;;;;;5026473;28;20207;-43
2022/10/18 02:32:08;;;;;;;21.13;14.73;;;14.20;99.90;;;;;;5042456;28;20207;-43
2022/10/18 02:34:40;;;;;;;20.57;14.27;;;14.20;99.90;;;;;;5033316;28;20222;-43
2022/10/18 02:37:09;;;;;;;27.53;14.47;;;14.20;99.90;;;;;;5042926;28;20207;-43
2022/10/18 02:39:40;;;;;;;27.43;16.07;;;14.20;99.90;;;;;;5030865;28;20427;-46
2022/10/18 02:42:10;;;;;;;24.87;15.70;;;14.20;99.90;;;;;;5046863;28;20214;-45
2022/10/18 02:44:38;;;;;;;26.20;15.63;;;14.20;99.90;;;;;;5034249;28;21455;-45
2022/10/18 02:47:07;;;;;;;22.90;15.23;;;14.20;99.90;;;;;;5044316;28;20218;-43
2022/10/18 02:49:34;;;;;;;24.63;16.13;;;14.20;99.90;;;;;;5038359;28;20199;-42
2022/10/18 02:52:03;;;;;;;23.57;16.03;;;14.20;99.90;;;;;;5046978;28;20711;-43
2022/10/18 02:54:29;;;;;;;26.70;15.70;;;14.20;99.90;;;;;;5028943;28;20378;-44
2022/10/18 02:56:56;;;;;;;26.47;15.57;;;14.20;99.90;;;;;;5046658;28;20203;-45
2022/10/18 02:59:24;;;;;;;25.03;16.13;;;14.20;99.90;;;;;;5043265;28;20211;-43
2022/10/18 03:01:50;;;;;;;28.00;16.43;;;14.10;99.90;;;;;;5036444;28;20219;-45
2022/10/18 03:04:17;;;;;;;26.93;15.80;;;14.10;99.90;;;;;;5038585;28;20207;-46
2022/10/18 03:06:44;;;;;;;28.20;15.93;;;14.10;99.90;;;;;;5044589;28;20187;-42
2022/10/18 03:09:12;;;;;;;24.13;15.73;;;14.10;99.90;;;;;;5042073;28;20199;-44
2022/10/18 03:11:39;;;;;;;25.67;15.97;;;14.10;99.90;;;;;;5035885;28;20225;-43
2022/10/18 03:14:06;;;;;;;25.20;16.30;;;14.10;99.90;;;;;;5045336;28;20571;-45
2022/10/18 03:16:33;;;;;;;24.93;16.33;;;14.10;99.90;;;;;;5032741;28;20200;-44
2022/10/18 03:19:00;;;;;;;27.43;16.60;;;14.10;99.90;;;;;;5046337;28;20202;-45
2022/10/18 03:21:27;;;;;;;29.27;16.80;;;14.10;99.90;;;;;;5037273;28;20862;-44
2022/10/18 03:23:54;;;;;;;23.67;15.87;;;14.10;99.90;;;;;;5045301;28;20234;-44
2022/10/18 03:26:22;;;;;;;24.27;15.13;;;14.10;99.90;;;;;;5030558;28;20742;-45
2022/10/18 03:28:49;;;;;;;29.67;17.13;;;14.10;99.90;;;;;;5045444;28;20211;-46
2022/10/18 03:31:16;;;;;;;28.60;15.80;;;14.10;99.90;;;;;;5040535;28;20633;-43
2022/10/18 03:33:43;;;;;;;27.53;16.63;;;14.00;99.90;;;;;;5039072;28;20282;-43
2022/10/18 03:36:11;;;;;;;23.23;15.13;;;14.10;99.90;;;;;;5035448;28;20211;-44
2022/10/18 03:38:38;;;;;;;23.40;16.33;;;14.10;99.90;;;;;;5041572;28;20901;-47
2022/10/18 03:41:05;;;;;;;25.77;15.40;;;14.10;99.90;;;;;;5032378;28;20230;-45
2022/10/18 03:43:34;;;;;;;28.03;17.77;;;14.10;99.90;;;;;;5037746;28;20384;-43
2022/10/18 03:46:01;;;;;;;29.83;16.93;;;14.10;99.90;;;;;;5042841;28;20196;-45
2022/10/18 03:48:28;;;;;;;26.00;16.63;;;14.10;99.90;;;;;;5027314;28;20203;-45
2022/10/18 03:50:55;;;;;;;27.43;16.97;;;14.10;99.90;;;;;;5028349;28;20330;-42
2022/10/18 03:53:22;;;;;;;31.67;18.00;;;14.00;99.90;;;;;;5031103;28;20203;-44
2022/10/18 03:55:51;;;;;;;30.93;17.27;;;14.10;99.90;;;;;;5031006;28;20223;-43
2022/10/18 03:58:18;;;;;;;30.10;17.47;;;14.10;99.90;;;;;;5041277;28;20210;-42
2022/10/18 04:00:49;;;;;;;30.37;18.37;;;14.10;99.90;;;;;;5041196;28;20227;-43
2022/10/18 04:03:16;;;;;;;32.93;17.87;;;14.10;99.90;;;;;;5036476;28;20717;-44
2022/10/18 04:05:43;;;;;;;32.50;18.87;;;14.10;99.90;;;;;;5043181;28;20245;-42
2022/10/18 04:08:10;;;;;;;29.70;18.60;;;14.10;99.90;;;;;;5039635;28;20227;-42
2022/10/18 04:10:37;;;;;;;33.00;19.07;;;14.10;99.90;;;;;;5029456;28;20223;-44
2022/10/18 04:13:05;;;;;;;34.57;19.73;;;14.00;99.90;;;;;;5044970;28;20199;-46
2022/10/18 04:15:31;;;;;;;28.37;17.53;;;14.00;99.90;;;;;;5036221;28;20234;-46
2022/10/18 04:18:00;;;;;;;33.90;19.30;;;14.00;99.90;;;;;;5035213;28;20253;-45
2022/10/18 04:20:27;;;;;;;36.33;17.83;;;14.10;99.90;;;;;;5041001;28;20223;-46
2022/10/18 04:22:56;;;;;;;34.87;18.37;;;14.00;99.90;;;;;;5039440;28;20207;-47
2022/10/18 04:25:24;;;;;;;32.00;18.90;;;14.00;99.90;;;;;;5030360;28;20253;-45
2022/10/18 04:27:50;;;;;;;28.17;18.07;;;14.00;99.90;;;;;;5042365;28;20211;-45
2022/10/18 04:30:18;;;;;;;27.27;17.90;;;14.00;99.90;;;;;;5036894;28;20305;-47
2022/10/18 04:32:44;;;;;;;37.40;18.80;;;13.90;99.90;;;;;;5031263;28;20211;-50
2022/10/18 04:35:12;;;;;;;29.97;18.57;;;13.90;99.90;;;;;;5043148;28;20207;-46
2022/10/18 04:37:39;;;;;;;33.63;18.47;;;13.90;99.90;;;;;;5028720;28;20675;-50
2022/10/18 04:40:07;;;;;;;30.33;17.73;;;13.90;99.90;;;;;;5041702;28;20219;-49
2022/10/18 04:42:34;;;;;;;28.97;17.90;;;13.90;99.90;;;;;;5026576;28;20208;-49
2022/10/18 04:45:01;;;;;;;28.93;17.10;;;13.90;99.90;;;;;;5039581;28;20183;-45
2022/10/18 04:47:28;;;;;;;30.63;17.37;;;13.90;99.90;;;;;;5043951;28;20203;-46
2022/10/18 04:49:55;;;;;;;28.43;17.67;;;13.90;99.90;;;;;;5030227;28;20212;-47
2022/10/18 04:52:24;;;;;;;34.23;17.63;;;13.90;99.90;;;;;;5044429;28;20200;-45
2022/10/18 04:54:51;;;;;;;32.50;17.23;;;13.90;99.90;;;;;;5034360;28;20238;-47
2022/10/18 04:57:17;;;;;;;26.57;16.43;;;13.90;99.90;;;;;;5030125;28;20195;-45
2022/10/18 04:59:44;;;;;;;34.77;18.00;;;13.90;99.90;;;;;;5036627;28;20231;-48
2022/10/18 05:02:11;;;;;;;30.07;17.47;;;13.90;99.90;;;;;;5036185;28;20199;-48
2022/10/18 05:04:38;;;;;;;32.23;17.47;;;13.90;99.90;;;;;;5034077;28;20222;-48
2022/10/18 05:07:05;;;;;;;27.37;16.97;;;13.90;99.90;;;;;;5039903;28;20203;-49
2022/10/18 05:09:33;;;;;;;36.37;18.00;;;13.90;99.90;;;;;;5038672;28;20270;-49
2022/10/18 05:12:00;;;;;;;33.00;18.80;;;13.80;99.90;;;;;;5025730;28;20981;-45
2022/10/18 05:14:26;;;;;;;31.17;17.67;;;13.90;99.90;;;;;;5032079;28;20218;-49
2022/10/18 05:16:53;;;;;;;32.97;18.13;;;13.80;99.90;;;;;;5040021;28;20203;-51
2022/10/18 05:19:20;;;;;;;31.17;17.70;;;13.80;99.90;;;;;;5033971;28;20207;-48
2022/10/18 05:21:46;;;;;;;31.17;18.23;;;13.80;99.90;;;;;;5033600;28;20254;-46
2022/10/18 05:24:13;;;;;;;30.63;18.30;;;13.80;99.90;;;;;;5041477;28;20196;-48
2022/10/18 05:26:41;;;;;;;29.43;17.30;;;13.80;99.90;;;;;;5034008;28;20198;-47
2022/10/18 05:29:08;;;;;;;37.87;19.70;;;13.80;99.90;;;;;;5024886;28;20207;-48
2022/10/18 05:31:35;;;;;;;32.90;17.60;;;13.80;99.90;;;;;;5039745;28;20223;-48
2022/10/18 05:34:01;;;;;;;32.07;17.60;;;13.80;99.90;;;;;;5039562;28;20203;-46
2022/10/18 05:36:28;;;;;;;37.10;17.67;;;13.80;99.90;;;;;;5018975;28;20215;-46
2022/10/18 05:38:55;;;;;;;39.63;18.20;;;13.80;99.90;;;;;;5038394;28;20208;-48
2022/10/18 05:41:22;;;;;;;30.53;17.20;;;13.80;99.90;;;;;;5031611;28;20215;-50
2022/10/18 05:43:50;;;;;;;33.67;17.87;;;13.80;99.90;;;;;;5015511;28;20207;-51
2022/10/18 05:46:18;;;;;;;33.67;17.20;;;13.80;99.90;;;;;;5040152;28;20209;-47
2022/10/18 05:48:49;;;;;;;36.67;17.03;;;13.70;99.90;;;;;;5035665;28;20915;-46
2022/10/18 05:51:16;;;;;;;26.97;16.70;;;13.70;99.90;;;;;;5033981;28;20590;-51
2022/10/18 05:53:43;;;;;;;32.93;17.20;;;13.70;99.90;;;;;;5028384;28;20191;-45
2022/10/18 05:56:11;;;;;;;32.50;16.13;;;13.70;99.90;;;;;;5035800;28;20704;-48
2022/10/18 05:58:38;;;;;;;29.90;17.13;;;13.70;99.90;;;;;;5025431;28;20237;-50
2022/10/18 06:01:07;;;;;;;30.67;17.80;;;13.70;99.90;;;;;;5037607;28;20235;-45
2022/10/18 06:03:34;;;;;;;27.53;17.37;;;13.70;99.90;;;;;;5036955;28;20219;-47
2022/10/18 06:06:01;;;;;;;29.80;16.63;;;13.70;99.90;;;;;;5035656;28;20204;-49
2022/10/18 06:08:27;;;;;;;28.90;16.77;;;13.70;99.90;;;;;;5030715;28;20208;-48
2022/10/18 06:10:54;;;;;;;27.13;16.10;;;13.60;99.90;;;;;;5031600;28;20230;-48
2022/10/18 06:13:21;;;;;;;27.93;15.90;;;13.60;99.90;;;;;;5044164;28;20199;-46
2022/10/18 06:15:48;;;;;;;28.13;15.67;;;13.60;99.90;;;;;;5026595;28;20227;-45
2022/10/18 06:18:16;;;;;;;25.17;14.97;;;13.60;99.90;;;;;;5047362;28;20672;-48
2022/10/18 06:20:43;;;;;;;30.20;14.87;;;13.50;99.90;;;;;;5036391;28;20236;-45
2022/10/18 06:23:10;;;;;;;26.53;14.57;;;13.50;99.90;;;;;;5029634;28;20234;-45
2022/10/18 06:25:36;;;;;;;28.07;14.73;;;13.40;99.90;;;;;;5034597;28;20423;-45
2022/10/18 06:28:04;;;;;;;30.40;14.70;;;13.40;99.90;;;;;;5040843;28;20200;-45
2022/10/18 06:30:32;;;;;;;27.37;15.63;;;13.50;99.90;;;;;;5025685;28;20625;-51
2022/10/18 06:32:59;;;;;;;29.77;14.20;;;13.50;99.90;;;;;;5042679;28;20207;-49
2022/10/18 06:35:28;;;;;;;24.07;14.33;;;13.40;99.90;;;;;;5041039;28;20202;-46
2022/10/18 06:37:54;;;;;;;25.47;14.03;;;13.50;99.90;;;;;;5032802;28;20215;-46
2022/10/18 06:40:21;;;;;;;25.60;14.23;;;13.50;99.90;;;;;;5029133;28;20302;-49
2022/10/18 06:42:48;;;;;;;28.00;15.70;;;13.50;99.90;;;;;;5028861;28;20231;-49
2022/10/18 06:45:17;;;;;;;26.73;14.97;;;13.50;99.90;;;;;;5030858;28;20195;-51
2022/10/18 06:47:44;;;;;;;27.70;14.33;;;13.50;99.90;;;;;;5037854;28;20183;-46
2022/10/18 06:50:11;;;;;;;30.23;14.07;;;13.50;99.90;;;;;;5037115;28;20222;-51
2022/10/18 06:52:41;;;;;;;28.60;14.40;;;13.50;99.90;;;;;;5031142;28;20238;-47
2022/10/18 06:55:09;;;;;;;26.50;14.80;;;13.50;99.90;;;;;;5025786;28;20208;-45
2022/10/18 06:57:36;;;;;;;33.03;14.00;;;13.50;99.90;;;;;;5026986;28;20247;-48
2022/10/18 07:00:04;;;;;;;26.87;13.83;;;13.50;99.90;;;;;;5039516;28;20219;-47
2022/10/18 07:02:31;;;;;;;27.50;14.17;;;13.50;99.90;;;;;;5018581;28;20925;-47
2022/10/18 07:04:58;;;;;;;25.20;14.63;;;13.50;99.90;;;;;;5030715;28;20279;-45
2022/10/18 07:07:24;;;;;;;25.47;14.40;;;13.60;99.90;;;;;;5031771;28;20865;-46
2022/10/18 07:09:54;;;;;;;28.03;15.47;;;13.60;99.90;;;;;;5026929;28;20191;-46
2022/10/18 07:12:20;;;;;;;26.33;14.30;;;13.60;99.90;;;;;;5033907;28;20203;-46
2022/10/18 07:14:47;;;;;;;24.00;14.03;;;13.70;99.90;;;;;;5029438;28;20567;-48
2022/10/18 07:17:14;;;;;;;27.50;15.13;;;13.70;99.90;;;;;;5026832;28;20298;-46
2022/10/18 07:19:40;;;;;;;27.03;14.97;;;13.70;99.90;;;;;;5034880;28;20195;-51
2022/10/18 07:22:07;;;;;;;28.03;14.40;;;13.70;99.90;;;;;;5034134;28;20929;-46
2022/10/18 07:24:34;;;;;;;25.40;13.97;;;13.70;99.90;;;;;;5045030;28;20195;-46
2022/10/18 07:27:02;;;;;;;24.87;13.73;;;13.70;99.90;;;;;;5030024;28;20664;-47
2022/10/18 07:29:28;;;;;;;35.43;13.33;;;13.70;99.90;;;;;;5034364;28;20214;-46
2022/10/18 07:31:56;;;;;;;30.53;14.03;;;13.70;99.90;;;;;;5025440;28;20700;-48
2022/10/18 07:34:23;;;;;;;27.40;14.47;;;13.70;99.90;;;;;;5042592;28;20212;-48
2022/10/18 07:36:50;;;;;;;27.77;14.60;;;13.70;99.90;;;;;;5041943;28;20767;-51
2022/10/18 07:39:17;;;;;;;23.13;13.10;;;13.70;99.90;;;;;;5028808;28;20204;-51
2022/10/18 07:41:44;;;;;;;24.43;13.83;;;13.70;99.90;;;;;;5028432;28;20227;-47
2022/10/18 07:44:12;;;;;;;28.40;13.73;;;13.70;99.90;;;;;;5044423;28;20206;-47
2022/10/18 07:46:39;;;;;;;27.73;15.10;;;13.70;99.90;;;;;;5022755;28;20211;-47
2022/10/18 07:49:06;;;;;;;23.13;13.67;;;13.70;99.90;;;;;;5035455;28;20226;-47
2022/10/18 07:51:34;;;;;;;20.23;13.23;;;13.70;99.90;;;;;;5037819;28;20235;-50
2022/10/18 07:54:02;;;;;;;33.03;14.40;;;13.70;99.90;;;;;;5036028;28;20321;-48
2022/10/18 07:56:28;;;;;;;20.50;12.13;;;13.70;99.90;;;;;;5029938;28;20219;-47
2022/10/18 07:58:56;;;;;;;29.30;13.60;;;13.70;99.90;;;;;;5036937;28;20270;-48
2022/10/18 08:01:24;;;;;;;28.73;12.87;;;13.70;99.90;;;;;;5026991;28;20223;-50
2022/10/18 08:03:52;;;;;;;27.73;14.67;;;13.80;99.90;;;;;;5028425;28;20195;-49
2022/10/18 08:06:21;;;;;;;25.63;14.10;;;13.70;99.90;;;;;;5036449;28;20187;-46
2022/10/18 08:08:48;;;;;;;34.60;15.33;;;13.80;99.90;;;;;;5031037;28;20209;-48
2022/10/18 08:11:18;;;;;;;22.63;12.97;;;13.70;99.90;;;;;;5030547;28;20219;-48
2022/10/18 08:13:45;;;;;;;26.27;12.87;;;13.70;99.90;;;;;;5032430;28;20195;-46
2022/10/18 08:16:14;;;;;;;28.10;14.20;;;13.70;99.90;;;;;;5038867;28;20223;-48
2022/10/18 08:18:42;;;;;;;31.83;14.73;;;13.80;99.90;;;;;;5030964;28;20220;-49
2022/10/18 08:21:11;;;;;;;27.67;14.73;;;13.80;99.90;;;;;;5044942;28;20235;-48
2022/10/18 08:23:39;;;;;;;29.10;13.87;;;13.80;99.90;;;;;;5034290;28;20195;-51
2022/10/18 08:26:07;;;;;;;30.20;14.07;;;13.80;99.90;;;;;;5034627;28;20211;-46
2022/10/18 08:28:35;;;;;;;26.50;13.50;;;13.80;99.90;;;;;;5027654;28;20199;-46
2022/10/18 08:31:03;;;;;;;21.47;12.80;;;13.80;99.90;;;;;;5036427;28;20640;-47
2022/10/18 08:33:30;;;;;;;22.03;12.73;;;13.80;99.90;;;;;;5024784;28;20204;-52
2022/10/18 08:36:00;;;;;;;22.10;12.63;;;13.80;99.90;;;;;;5036237;28;20204;-50
2022/10/18 08:38:29;;;;;;;26.60;13.77;;;13.80;99.90;;;;;;5030401;28;20199;-48
2022/10/18 08:40:56;;;;;;;23.10;12.40;;;13.80;99.90;;;;;;5034466;28;20211;-46
2022/10/18 08:43:31;;;;;;;25.30;12.97;;;13.80;99.90;;;;;;5028344;28;20196;-49
2022/10/18 08:45:59;;;;;;;25.67;13.60;;;13.80;99.90;;;;;;5039752;28;20203;-46
2022/10/18 08:48:33;;;;;;;24.73;13.27;;;13.80;99.90;;;;;;5022391;28;20257;-47
2022/10/18 08:51:04;;;;;;;20.83;11.77;;;13.90;99.90;;;;;;5039299;28;20419;-48
2022/10/18 08:53:38;;;;;;;22.47;11.93;;;13.90;99.90;;;;;;5027142;28;20204;-48
2022/10/18 08:56:10;;;;;;;26.07;12.83;;;13.90;99.90;;;;;;5038193;28;20195;-49
2022/10/18 08:58:37;;;;;;;22.33;12.30;;;13.90;99.90;;;;;;5029669;28;20383;-46
2022/10/18 09:01:15;;;;;;;27.13;13.13;;;13.90;99.90;;;;;;5044240;28;20251;-48
2022/10/18 09:04:04;;;;;;;21.77;11.97;;;14.00;99.90;;;;;;5023563;28;21023;-46
2022/10/18 09:06:35;;;;;;;27.03;13.37;;;14.00;99.90;;;;;;5040551;28;20191;-52
2022/10/18 09:09:15;;;;;;;23.20;12.07;;;14.00;99.90;;;;;;5044445;28;20664;-49
2022/10/18 09:11:52;;;;;;;23.20;11.97;;;14.00;99.90;;;;;;5040748;28;20304;-47
2022/10/18 09:14:49;;;;;;;18.43;12.30;;;14.10;99.90;;;;;;5031149;28;20199;-51
2022/10/18 09:17:26;;;;;;;23.80;12.03;;;14.20;99.90;;;;;;5028376;28;20661;-48
2022/10/18 09:20:08;;;;;;;21.70;11.50;;;14.30;99.90;;;;;;5021034;28;20214;-48
2022/10/18 09:22:51;;;;;;;23.07;10.83;;;14.30;99.90;;;;;;5032745;28;20203;-46
2022/10/18 09:25:21;;;;;;;22.67;11.33;;;14.30;99.90;;;;;;5031495;28;20261;-50
2022/10/18 09:28:11;;;;;;;18.03;10.30;;;14.40;99.90;;;;;;5027531;28;20204;-48
2022/10/18 09:30:45;;;;;;;23.30;10.43;;;14.30;99.90;;;;;;5035483;28;20855;-46
2022/10/18 09:33:25;;;;;;;22.73;11.53;;;14.30;99.90;;;;;;5036426;28;20210;-50
2022/10/18 09:35:55;;;;;;;17.40;10.20;;;14.30;99.90;;;;;;5021445;28;20203;-46
2022/10/18 09:38:29;;;;;;;22.00;11.17;;;14.40;99.90;;;;;;5035417;28;20230;-51
2022/10/18 09:41:00;;;;;;;18.27;9.80;;;14.60;99.90;;;;;;5041863;28;20273;-50
2022/10/18 09:43:38;;;;;;;17.10;9.50;;;14.70;99.90;;;;;;5028124;28;20219;-51
2022/10/18 09:46:06;;;;;;;16.13;9.57;;;15.00;99.90;;;;;;5036929;28;20196;-47
2022/10/18 09:48:42;;;;;;;15.50;8.63;;;15.20;99.90;;;;;;5031936;28;20192;-47
2022/10/18 09:51:16;;;;;;;17.20;8.83;;;15.20;99.90;;;;;;5028805;28;20711;-49
2022/10/18 09:53:58;;;;;;;13.63;7.63;;;15.20;99.90;;;;;;5039702;28;20274;-48
2022/10/18 09:56:29;;;;;;;12.13;8.00;;;15.20;99.90;;;;;;5040573;28;21065;-49
2022/10/18 09:58:56;;;;;;;15.93;7.83;;;15.30;99.90;;;;;;5039720;28;20208;-46
2022/10/18 10:01:25;;;;;;;13.03;7.37;;;15.30;99.90;;;;;;5030272;28;20225;-48
2022/10/18 10:03:53;;;;;;;14.93;8.40;;;15.30;99.90;;;;;;5040685;28;20191;-47
2022/10/18 10:06:25;;;;;;;11.83;6.80;;;15.30;99.90;;;;;;5035527;28;20279;-49
2022/10/18 10:08:59;;;;;;;16.13;7.77;;;15.20;99.90;;;;;;5032797;28;20220;-50
2022/10/18 10:11:32;;;;;;;19.83;8.07;;;15.10;99.90;;;;;;5035429;28;20260;-49
2022/10/18 10:14:08;;;;;;;13.90;8.10;;;15.00;99.90;;;;;;5037208;28;20195;-48
2022/10/18 10:16:43;;;;;;;20.53;8.57;;;15.00;99.90;;;;;;5023649;28;20198;-47
2022/10/18 10:19:17;;;;;;;11.93;7.10;;;15.00;99.90;;;;;;5039876;28;20203;-51
2022/10/18 10:21:44;;;;;;;14.83;7.93;;;15.10;99.90;;;;;;5024676;28;20231;-46
2022/10/18 10:24:23;;;;;;;13.00;7.87;;;15.20;99.90;;;;;;5041398;28;20282;-50
2022/10/18 10:26:50;;;;;;;13.47;7.60;;;15.30;99.90;;;;;;5040059;28;20187;-46
2022/10/18 10:29:52;;;;;;;15.20;7.30;;;15.30;99.90;;;;;;5037274;28;20198;-53
2022/10/18 10:32:22;;;;;;;14.97;7.93;;;15.50;99.90;;;;;;5029064;28;20226;-51
2022/10/18 10:34:49;;;;;;;16.93;7.87;;;15.60;99.90;;;;;;5035649;28;20195;-47
2022/10/18 10:37:28;;;;;;;17.73;8.80;;;15.60;99.90;;;;;;5033235;28;20203;-47
2022/10/18 10:40:09;;;;;;;15.30;9.00;;;15.60;99.90;;;;;;5042087;28;20258;-48
2022/10/18 10:42:38;;;;;;;14.77;8.10;;;15.50;99.90;;;;;;5027447;28;20195;-47
2022/10/18 10:45:12;;;;;;;14.10;9.20;;;15.40;99.90;;;;;;5041397;28;20282;-49
2022/10/18 10:47:40;;;;;;;10.00;7.80;;;15.20;99.90;;;;;;5028872;28;20246;-49
2022/10/18 10:50:11;;;;;;;16.90;8.50;;;15.10;99.90;;;;;;5042739;28;20238;-46
2022/10/18 10:52:42;;;;;;;17.60;8.63;;;15.00;99.90;;;;;;5026175;28;20218;-47
2022/10/18 10:55:19;;;;;;;16.17;9.00;;;15.00;99.90;;;;;;5041930;28;20203;-50
2022/10/18 10:57:48;;;;;;;17.83;8.10;;;15.00;99.90;;;;;;5028078;28;20231;-46
2022/10/18 11:00:41;;;;;;;16.80;9.20;;;15.00;99.90;;;;;;5036156;28;20303;-50
2022/10/18 11:03:13;;;;;;;17.37;8.40;;;14.90;99.90;;;;;;5029111;28;20669;-46
2022/10/18 11:05:45;;;;;;;17.47;7.83;;;14.90;99.90;;;;;;5030260;28;20187;-47
2022/10/18 11:08:16;;;;;;;15.93;8.77;;;15.00;99.90;;;;;;5023834;28;20206;-46
2022/10/18 11:10:59;;;;;;;14.53;7.77;;;15.10;99.90;;;;;;5035578;28;20525;-46
2022/10/18 11:13:40;;;;;;;13.90;7.73;;;15.10;99.90;;;;;;5029842;28;20214;-51
2022/10/18 11:16:13;;;;;;;14.53;8.00;;;15.20;99.90;;;;;;5037867;28;20203;-47
2022/10/18 11:18:46;;;;;;;13.27;7.00;;;15.30;99.90;;;;;;5020815;28;20213;-49
2022/10/18 11:21:16;;;;;;;11.40;8.03;;;15.30;99.90;;;;;;5037408;28;20703;-48
2022/10/18 11:23:44;;;;;;;12.93;8.57;;;15.40;99.90;;;;;;5024028;28;20211;-48
2022/10/18 11:26:39;;;;;;;17.77;8.07;;;15.50;99.90;;;;;;5035975;28;20309;-46
2022/10/18 11:29:22;;;;;;;14.57;8.43;;;15.60;99.90;;;;;;5029747;28;20222;-49
2022/10/18 11:31:59;;;;;;;18.57;8.70;;;15.70;99.90;;;;;;5037996;28;20215;-46
2022/10/18 11:34:46;;;;;;;17.10;7.70;;;15.80;99.90;;;;;;5022209;28;20199;-48
2022/10/18 11:37:30;;;;;;;12.53;6.00;;;15.90;99.90;;;;;;5040072;28;20672;-49
2022/10/18 11:40:07;;;;;;;11.43;4.33;;;15.90;99.90;;;;;;5028642;28;20211;-48
2022/10/18 11:42:42;;;;;;;7.63;4.27;;;15.80;99.90;;;;;;5035431;28;20402;-50
2022/10/18 11:45:21;;;;;;;14.27;4.50;;;15.70;99.90;;;;;;5035920;28;20298;-46
2022/10/18 11:47:58;;;;;;;8.23;3.73;;;15.60;99.90;;;;;;5031976;28;20199;-48
2022/10/18 11:50:32;;;;;;;8.13;3.90;;;15.40;99.90;;;;;;5025751;28;20687;-50
2022/10/18 11:53:11;;;;;;;8.30;4.00;;;15.30;99.90;;;;;;5042151;28;20196;-46
2022/10/18 11:55:48;;;;;;;11.80;3.60;;;15.30;99.90;;;;;;5017436;28;20206;-46
2022/10/18 11:58:34;;;;;;;10.07;3.57;;;15.20;99.90;;;;;;5032080;28;20218;-49
2022/10/18 12:01:06;;;;;;;9.87;3.37;;;15.20;99.90;;;;;;5032565;28;20234;-47
2022/10/18 12:03:39;;;;;;;8.37;3.00;;;15.10;99.90;;;;;;5019501;28;20207;-50
2022/10/18 12:06:14;;;;;;;7.70;3.13;;;15.20;99.90;;;;;;5044862;28;20195;-48
2022/10/18 12:08:44;;;;;;;7.63;3.00;;;15.20;99.90;;;;;;5030734;28;20223;-50
2022/10/18 12:11:15;;;;;;;9.07;2.70;;;15.30;99.90;;;;;;5029555;28;20231;-49
2022/10/18 12:13:49;;;;;;;8.73;2.30;;;15.40;99.90;;;;;;5034784;28;20214;-49
2022/10/18 12:16:19;;;;;;;4.67;1.73;;;15.40;99.90;;;;;;5034802;28;20191;-49
2022/10/18 12:18:54;;;;;;;7.53;2.20;;;15.60;99.90;;;;;;5025915;28;20219;-47
2022/10/18 12:21:23;;;;;;;6.70;1.97;;;15.60;99.90;;;;;;5036539;28;20231;-48
2022/10/18 12:23:54;;;;;;;7.57;2.30;;;15.70;99.90;;;;;;5039414;28;20202;-46
2022/10/18 12:26:22;;;;;;;3.83;1.40;;;15.70;99.90;;;;;;5032675;28;20279;-49
2022/10/18 12:28:57;;;;;;;5.73;1.83;;;15.60;99.90;;;;;;5028411;28;20695;-47
2022/10/18 12:31:32;;;;;;;6.73;2.20;;;15.60;99.90;;;;;;5033271;28;20220;-47
2022/10/18 12:34:05;;;;;;;11.37;1.80;;;15.50;99.90;;;;;;5026202;28;20249;-47
2022/10/18 12:36:50;;;;;;;8.40;2.07;;;15.40;99.90;;;;;;5039401;28;20265;-47
2022/10/18 12:39:22;;;;;;;13.30;1.73;;;15.40;99.90;;;;;;5042359;28;20583;-51
2022/10/18 12:41:54;;;;;;;9.57;2.87;;;15.40;99.90;;;;;;5043138;28;20238;-48
2022/10/18 12:44:28;;;;;;;14.43;3.07;;;15.50;99.90;;;;;;5022700;28;20235;-50
2022/10/18 12:46:58;;;;;;;6.10;1.63;;;15.60;99.90;;;;;;5038151;28;20332;-49